Time;durP1;ratioP1;P1;durP2;ratioP2;P2;SDS_P1;SDS_P2;PMS_P1;PMS_P2;Temp;Humidity;BMP_temperature;BMP_pressure;BME280_temperature;BME280_humidity;BME280_pressure;Samples;Min_cycle;Max_cycle;Signal;HPM_P1;HPM_P2
2021/03/17 00:02:22;;;;;;;16.85;9.98;;;;;;;4.42;65.68;93346.09;5009990;28;20177;-72
2021/03/17 00:04:48;;;;;;;17.23;10.40;;;;;;;4.45;65.44;93342.78;5011544;28;20191;-70
2021/03/17 00:07:14;;;;;;;16.27;9.63;;;;;;;4.47;65.19;93329.97;5011666;28;20255;-70
2021/03/17 00:09:39;;;;;;;15.43;10.23;;;;;;;4.40;64.69;93343.03;5010077;28;20747;-70
2021/03/17 00:12:05;;;;;;;15.53;10.63;;;;;;;4.43;64.83;93329.16;5011654;28;20169;-71
2021/03/17 00:14:31;;;;;;;13.37;9.30;;;;;;;4.44;65.87;93324.63;5011566;28;20172;-70
2021/03/17 00:16:56;;;;;;;17.47;10.47;;;;;;;4.40;65.11;93331.72;5011480;28;20192;-70
2021/03/17 00:19:22;;;;;;;15.10;10.30;;;;;;;4.31;65.29;93333.75;5011820;28;20292;-70
2021/03/17 00:21:47;;;;;;;20.00;10.40;;;;;;;4.38;65.23;93326.78;5011311;28;20181;-70
2021/03/17 00:24:13;;;;;;;14.03;10.03;;;;;;;4.25;65.51;93317.41;5011598;28;20183;-70
2021/03/17 00:26:38;;;;;;;16.93;11.43;;;;;;;4.31;65.96;93329.25;5011369;28;20180;-70
2021/03/17 00:29:04;;;;;;;14.87;9.60;;;;;;;4.46;65.35;93327.69;5011462;28;20204;-70
2021/03/17 00:31:29;;;;;;;13.33;9.80;;;;;;;4.33;65.57;93315.69;5011237;28;20213;-70
2021/03/17 00:33:55;;;;;;;16.57;10.40;;;;;;;4.14;66.36;93313.75;5011561;28;20260;-70
2021/03/17 00:36:20;;;;;;;15.97;10.03;;;;;;;4.13;66.36;93317.50;5011473;28;20173;-70
2021/03/17 00:38:45;;;;;;;18.03;9.67;;;;;;;4.07;67.01;93316.22;5010997;28;20223;-71
2021/03/17 00:41:11;;;;;;;14.87;8.87;;;;;;;4.13;66.92;93317.50;5011241;28;20256;-70
2021/03/17 00:43:37;;;;;;;17.40;9.67;;;;;;;4.21;66.68;93317.34;5009749;28;20231;-71
2021/03/17 00:46:02;;;;;;;14.83;9.17;;;;;;;4.30;66.53;93303.16;5011234;28;20212;-71
2021/03/17 00:48:28;;;;;;;14.33;9.17;;;;;;;4.35;66.14;93311.59;5011029;28;20250;-71
2021/03/17 00:50:53;;;;;;;12.20;8.47;;;;;;;4.29;65.79;93305.03;5011302;28;20174;-70
2021/03/17 00:53:19;;;;;;;13.00;8.47;;;;;;;4.29;65.65;93297.13;5010796;28;20267;-70
2021/03/17 00:55:44;;;;;;;12.07;8.33;;;;;;;4.40;65.97;93303.41;5011192;28;20173;-70
2021/03/17 00:58:10;;;;;;;13.13;8.57;;;;;;;4.26;65.91;93303.06;5011165;28;20553;-70
2021/03/17 01:00:35;;;;;;;10.20;7.67;;;;;;;4.04;66.71;93295.78;5009594;28;20259;-71
2021/03/17 01:03:01;;;;;;;15.37;8.53;;;;;;;4.12;66.14;93313.34;5011069;28;20177;-70
2021/03/17 01:05:27;;;;;;;12.67;7.33;;;;;;;3.98;66.85;93311.91;5009838;28;20208;-71
2021/03/17 01:07:53;;;;;;;16.45;8.88;;;;;;;4.08;66.59;93299.25;5010953;28;20189;-71
2021/03/17 01:10:24;;;;;;;9.60;7.40;;;;;;;4.05;65.96;93300.72;5010962;28;20569;-70
2021/03/17 01:12:50;;;;;;;13.68;8.07;;;;;;;3.95;66.51;93294.09;5010596;28;20201;-71
2021/03/17 01:15:17;;;;;;;10.27;7.43;;;;;;;4.19;66.01;93293.13;5014658;28;20660;-71
2021/03/17 01:17:43;;;;;;;14.77;8.23;;;;;;;4.03;65.51;93296.88;5014660;28;20240;-71
2021/03/17 01:20:09;;;;;;;9.63;7.43;;;;;;;4.12;65.56;93300.88;5014587;28;20176;-71
2021/03/17 01:22:35;;;;;;;13.23;8.55;;;;;;;4.24;65.07;93300.78;5014749;28;20177;-70
2021/03/17 01:25:00;;;;;;;12.90;7.07;;;;;;;4.27;64.04;93298.59;5013298;28;20617;-71
2021/03/17 01:27:26;;;;;;;11.07;7.70;;;;;;;4.23;65.07;93296.63;5014614;28;20201;-71
2021/03/17 01:29:51;;;;;;;11.80;8.33;;;;;;;4.16;64.10;93287.78;5014437;28;20207;-71
2021/03/17 01:32:17;;;;;;;12.93;9.13;;;;;;;4.14;63.33;93292.59;5014149;28;20176;-72
2021/03/17 01:34:42;;;;;;;10.13;7.07;;;;;;;4.21;63.71;93290.91;5014457;28;20180;-71
2021/03/17 01:37:08;;;;;;;11.67;7.07;;;;;;;4.20;63.99;93291.25;5014376;28;20188;-71
2021/03/17 01:39:33;;;;;;;13.00;7.00;;;;;;;4.12;63.49;93289.56;5014325;28;20653;-70
2021/03/17 01:41:59;;;;;;;9.50;7.07;;;;;;;4.18;63.64;93282.91;5014045;28;20205;-71
2021/03/17 01:44:24;;;;;;;13.00;6.77;;;;;;;4.20;63.23;93293.88;5012677;28;20192;-70
2021/03/17 01:46:50;;;;;;;10.20;6.87;;;;;;;3.81;62.91;93275.25;5013727;28;20165;-70
2021/03/17 01:49:15;;;;;;;14.47;7.77;;;;;;;3.87;63.42;93289.75;5013949;28;20208;-70
2021/03/17 01:51:41;;;;;;;12.10;7.63;;;;;;;4.04;63.58;93288.63;5013920;28;20192;-71
2021/03/17 01:54:07;;;;;;;11.50;6.90;;;;;;;4.19;63.16;93279.91;5013555;28;20225;-70
2021/03/17 01:56:33;;;;;;;10.10;6.90;;;;;;;4.26;62.32;93287.22;5013915;28;20180;-71
2021/03/17 01:58:58;;;;;;;12.47;6.97;;;;;;;4.29;62.06;93286.53;5011993;28;20569;-71
2021/03/17 02:01:24;;;;;;;11.77;7.73;;;;;;;4.20;62.28;93289.38;5012552;28;20550;-71
2021/03/17 02:03:49;;;;;;;12.17;7.97;;;;;;;4.25;62.46;93296.25;5013512;28;20742;-71
2021/03/17 02:06:15;;;;;;;10.63;6.87;;;;;;;4.38;61.97;93296.94;5012580;28;20169;-71
2021/03/17 02:08:42;;;;;;;9.80;6.20;;;;;;;4.39;61.99;93299.25;5013375;28;20196;-70
2021/03/17 02:11:09;;;;;;;12.45;6.68;;;;;;;4.30;61.45;93295.25;5013505;28;20187;-71
2021/03/17 02:13:53;;;;;;;13.45;6.82;;;;;;;4.30;61.87;93303.16;5013476;28;20192;-71
2021/03/17 02:16:40;;;;;;;13.23;7.32;;;;;;;3.96;62.83;93297.47;5013606;28;20226;-70
2021/03/17 02:19:06;;;;;;;9.10;6.55;;;;;;;4.09;62.45;93300.78;5012217;28;20189;-71
2021/03/17 02:21:31;;;;;;;13.97;7.63;;;;;;;4.11;62.31;93301.25;5013593;28;20330;-71
2021/03/17 02:24:15;;;;;;;11.10;6.70;;;;;;;4.03;63.55;93294.25;5013310;28;20662;-71
2021/03/17 02:27:22;;;;;;;15.00;6.82;;;;;;;3.95;63.34;93304.66;5012094;28;20188;-70
2021/03/17 02:29:53;;;;;;;8.57;6.38;;;;;;;3.96;62.51;93303.53;4933730;29;20282;-70
2021/03/17 02:32:37;;;;;;;10.00;7.18;;;;;;;3.94;63.38;93305.00;4933585;29;20710;-70
2021/03/17 02:35:04;;;;;;;9.73;6.40;;;;;;;4.05;61.75;93315.81;4933698;29;20202;-71
2021/03/17 02:37:30;;;;;;;9.88;6.80;;;;;;;4.07;62.12;93316.22;4933517;29;20246;-71
2021/03/17 02:40:02;;;;;;;9.23;6.30;;;;;;;4.07;62.40;93311.72;4917758;29;20583;-71
2021/03/17 02:42:47;;;;;;;9.68;6.65;;;;;;;3.93;61.59;93312.16;4917631;29;20215;-71
2021/03/17 02:45:14;;;;;;;10.32;6.88;;;;;;;3.90;62.99;93319.97;4919888;29;20194;-71
2021/03/17 02:47:43;;;;;;;9.55;6.80;;;;;;;4.20;62.00;93317.66;4917540;29;20188;-71
2021/03/17 02:50:09;;;;;;;7.40;5.70;;;;;;;3.96;61.24;93308.03;4933510;29;20223;-70
2021/03/17 02:52:39;;;;;;;9.43;6.97;;;;;;;3.90;62.40;93304.13;4901536;29;20620;-71
2021/03/17 02:55:06;;;;;;;9.45;6.80;;;;;;;4.09;62.32;93324.56;4902006;29;20261;-71
2021/03/17 02:57:34;;;;;;;9.07;6.43;;;;;;;3.88;61.56;93316.91;4917446;29;20199;-71
2021/03/17 02:59:59;;;;;;;9.55;6.57;;;;;;;3.91;60.89;93317.00;4901980;29;20753;-71
2021/03/17 03:02:25;;;;;;;11.53;7.20;;;;;;;3.93;62.32;93317.44;4917152;29;20219;-71
2021/03/17 03:04:51;;;;;;;11.10;7.40;;;;;;;4.01;62.05;93307.78;4933280;29;20207;-70
2021/03/17 03:07:16;;;;;;;10.13;7.15;;;;;;;3.93;61.00;93303.47;4981975;28;20215;-71
2021/03/17 03:09:42;;;;;;;9.80;6.63;;;;;;;3.91;61.18;93298.50;5012735;28;20213;-70
2021/03/17 03:12:08;;;;;;;10.37;7.50;;;;;;;4.08;62.21;93317.75;5011278;28;20184;-71
2021/03/17 03:14:33;;;;;;;11.03;7.80;;;;;;;3.80;61.44;93310.69;5011506;28;20269;-71
2021/03/17 03:16:59;;;;;;;8.57;6.83;;;;;;;3.83;61.75;93314.53;5012564;28;20165;-71
2021/03/17 03:19:29;;;;;;;8.00;6.37;;;;;;;3.83;61.33;93309.25;5012153;28;20644;-70
2021/03/17 03:21:55;;;;;;;9.68;6.72;;;;;;;4.14;61.53;93324.31;5012480;28;20177;-70
2021/03/17 03:24:21;;;;;;;9.83;6.50;;;;;;;4.03;60.76;93313.50;5012258;28;20169;-71
2021/03/17 03:26:54;;;;;;;9.30;6.13;;;;;;;4.12;60.16;93324.66;4994957;28;20176;-71
2021/03/17 03:29:20;;;;;;;10.85;6.82;;;;;;;3.95;61.19;93325.78;5043474;28;20214;-70
2021/03/17 03:31:48;;;;;;;9.27;6.90;;;;;;;3.77;61.12;93323.81;5010395;28;20198;-72
2021/03/17 03:34:14;;;;;;;8.30;6.35;;;;;;;4.02;60.70;93325.16;5012202;28;20196;-71
2021/03/17 03:36:40;;;;;;;9.07;6.47;;;;;;;3.93;60.41;93322.72;5011531;28;20191;-72
2021/03/17 03:39:06;;;;;;;10.40;7.03;;;;;;;4.08;61.49;93320.41;5011945;28;20252;-72
2021/03/17 03:41:31;;;;;;;9.60;7.53;;;;;;;3.78;60.76;93323.47;5010781;28;20212;-72
2021/03/17 03:43:57;;;;;;;11.07;7.17;;;;;;;3.73;61.73;93321.06;5011849;28;20169;-70
2021/03/17 03:46:22;;;;;;;9.10;7.37;;;;;;;3.74;61.02;93317.31;5012086;28;20170;-72
2021/03/17 03:48:48;;;;;;;9.00;6.53;;;;;;;3.84;61.43;93324.75;5010693;28;20654;-72
2021/03/17 03:51:13;;;;;;;10.07;6.67;;;;;;;3.66;61.20;93284.72;5010694;28;20576;-72
2021/03/17 03:53:46;;;;;;;11.17;5.90;;;;;;;3.66;61.15;93318.25;5010683;28;20256;-71
2021/03/17 03:56:11;;;;;;;11.80;7.78;;;;;;;3.88;60.88;93314.28;5010461;28;20706;-71
2021/03/17 03:58:52;;;;;;;10.27;7.60;;;;;;;3.82;60.96;93319.03;5011944;28;20173;-71
2021/03/17 04:01:30;;;;;;;11.82;7.25;;;;;;;4.00;60.47;93324.75;5010312;28;20173;-71
2021/03/17 04:03:58;;;;;;;10.13;7.50;;;;;;;4.09;59.62;93319.28;5011835;28;20272;-71
2021/03/17 04:06:23;;;;;;;10.48;6.97;;;;;;;3.93;60.01;93321.94;5011854;28;20188;-71
2021/03/17 04:08:49;;;;;;;9.37;7.33;;;;;;;4.07;60.12;93319.63;4994292;28;20197;-71
2021/03/17 04:11:16;;;;;;;7.47;6.50;;;;;;;3.96;60.29;93314.09;4994138;28;20196;-72
2021/03/17 04:13:41;;;;;;;9.00;6.85;;;;;;;3.84;60.15;93327.38;5011762;28;20322;-71
2021/03/17 04:16:07;;;;;;;10.77;7.27;;;;;;;4.14;60.26;93324.31;4993985;28;20264;-71
2021/03/17 04:18:34;;;;;;;10.07;6.27;;;;;;;4.03;59.41;93329.34;5010555;28;20179;-71
2021/03/17 04:21:07;;;;;;;9.68;7.30;;;;;;;3.93;59.56;93335.91;5011555;28;21113;-71
2021/03/17 04:23:32;;;;;;;11.07;7.25;;;;;;;4.11;60.11;93322.38;5010516;28;20189;-72
2021/03/17 04:25:58;;;;;;;8.53;6.77;;;;;;;4.06;60.04;93315.47;4993869;28;20521;-72
2021/03/17 04:28:25;;;;;;;9.93;6.83;;;;;;;4.09;59.36;93327.22;5010501;28;20205;-72
2021/03/17 04:30:51;;;;;;;11.60;7.63;;;;;;;3.96;59.13;93308.03;4993976;28;20271;-71
2021/03/17 04:33:16;;;;;;;10.93;7.13;;;;;;;3.78;59.29;93312.91;4993784;28;20656;-71
2021/03/17 04:35:42;;;;;;;9.47;6.67;;;;;;;3.88;59.43;93311.63;5011586;28;20675;-71
2021/03/17 04:38:07;;;;;;;9.73;7.07;;;;;;;4.00;58.87;93310.78;5010221;28;20223;-71
2021/03/17 04:40:33;;;;;;;10.37;7.37;;;;;;;3.94;58.91;93318.97;4994173;28;20205;-71
2021/03/17 04:42:59;;;;;;;11.80;8.27;;;;;;;4.12;58.42;93335.22;5010182;28;20174;-70
2021/03/17 04:45:24;;;;;;;9.50;6.63;;;;;;;4.02;58.01;93324.41;5010207;28;20181;-71
2021/03/17 04:47:51;;;;;;;10.77;7.10;;;;;;;3.98;58.56;93321.66;4994461;28;20659;-72
2021/03/17 04:50:19;;;;;;;10.48;7.93;;;;;;;4.00;58.34;93311.53;5013922;28;20251;-70
2021/03/17 04:52:45;;;;;;;9.65;7.53;;;;;;;3.97;58.34;93335.97;4997690;28;20231;-70
2021/03/17 04:55:13;;;;;;;10.33;7.23;;;;;;;3.59;58.63;93331.25;4997955;28;20268;-71
2021/03/17 04:57:39;;;;;;;13.38;8.10;;;;;;;3.76;58.88;93328.31;5014893;28;20264;-71
2021/03/17 05:00:09;;;;;;;10.60;7.60;;;;;;;3.77;58.50;93340.41;4997512;28;20644;-71
2021/03/17 05:02:35;;;;;;;12.55;8.93;;;;;;;3.79;59.37;93334.78;5013538;28;20185;-70
2021/03/17 05:05:01;;;;;;;10.68;7.85;;;;;;;3.61;58.51;93310.59;5013885;28;20268;-72
2021/03/17 05:07:27;;;;;;;13.27;8.07;;;;;;;3.59;58.19;93336.53;4997491;28;20255;-71
2021/03/17 05:09:52;;;;;;;14.27;7.43;;;;;;;3.72;58.22;93340.66;4997020;28;20228;-70
2021/03/17 05:12:18;;;;;;;11.30;7.47;;;;;;;3.69;57.67;93330.78;4997454;28;20165;-71
2021/03/17 05:14:44;;;;;;;11.63;8.03;;;;;;;3.69;57.91;93338.69;5014662;28;20173;-71
2021/03/17 05:17:10;;;;;;;10.32;7.45;;;;;;;3.57;58.02;93334.25;4997437;28;20177;-72
2021/03/17 05:19:36;;;;;;;13.50;8.13;;;;;;;3.72;58.16;93345.94;5013329;28;20280;-71
2021/03/17 05:22:01;;;;;;;15.17;8.50;;;;;;;3.81;58.66;93346.53;4997180;28;20173;-72
2021/03/17 05:24:27;;;;;;;15.80;9.17;;;;;;;3.66;58.28;93352.56;5013287;28;20183;-72
2021/03/17 05:26:53;;;;;;;10.70;8.10;;;;;;;3.54;57.84;93336.81;5013429;28;20275;-73
2021/03/17 05:29:20;;;;;;;10.60;7.85;;;;;;;3.51;58.29;93342.75;5013015;28;20211;-72
2021/03/17 05:31:46;;;;;;;13.07;7.95;;;;;;;3.42;59.84;93324.41;5014462;28;20232;-71
2021/03/17 05:34:11;;;;;;;12.27;7.53;;;;;;;3.27;58.35;93281.09;4997152;28;20192;-71
2021/03/17 05:36:37;;;;;;;10.33;7.07;;;;;;;3.64;58.18;93328.38;4996859;28;20655;-70
2021/03/17 05:39:02;;;;;;;11.17;7.97;;;;;;;3.57;57.66;93347.44;5013323;28;20631;-70
2021/03/17 05:41:28;;;;;;;14.00;7.00;;;;;;;3.64;57.71;93334.41;5014246;28;20251;-69
2021/03/17 05:43:53;;;;;;;11.73;7.57;;;;;;;3.71;57.81;93344.41;5013108;28;20243;-70
2021/03/17 05:46:19;;;;;;;13.10;8.07;;;;;;;3.82;58.06;93349.97;4996435;28;20251;-71
2021/03/17 05:48:44;;;;;;;12.43;8.07;;;;;;;3.84;57.03;93350.38;5013063;28;20640;-71
2021/03/17 05:51:10;;;;;;;12.03;7.80;;;;;;;3.80;57.66;93345.00;5013939;28;20312;-71
2021/03/17 05:53:35;;;;;;;11.90;7.57;;;;;;;3.91;57.98;93340.75;5012731;28;20224;-72
2021/03/17 05:56:01;;;;;;;13.43;7.50;;;;;;;3.89;57.26;93329.00;5012937;28;20256;-71
2021/03/17 05:58:27;;;;;;;10.67;7.40;;;;;;;3.63;57.13;93361.94;5013974;28;20177;-72
2021/03/17 06:00:52;;;;;;;14.30;6.60;;;;;;;3.98;57.99;93350.72;5012964;28;20307;-71
2021/03/17 06:03:18;;;;;;;10.43;6.83;;;;;;;3.82;57.46;93349.97;4996159;28;20256;-71
2021/03/17 06:05:47;;;;;;;11.00;7.40;;;;;;;3.98;57.52;93361.28;5012613;28;20177;-71
2021/03/17 06:08:13;;;;;;;11.50;7.20;;;;;;;3.95;56.81;93368.03;5013640;28;20275;-71
2021/03/17 06:10:39;;;;;;;13.38;7.70;;;;;;;3.98;56.85;93363.94;5013956;28;20604;-71
2021/03/17 06:13:08;;;;;;;11.77;7.47;;;;;;;4.23;57.29;93370.59;5012345;28;20177;-71
2021/03/17 06:15:34;;;;;;;10.75;7.20;;;;;;;4.15;57.05;93379.47;5012561;28;20184;-71
2021/03/17 06:18:06;;;;;;;8.80;6.43;;;;;;;3.86;56.48;93367.41;5012290;28;20568;-70
2021/03/17 06:20:31;;;;;;;11.30;7.25;;;;;;;3.88;57.33;93370.50;5012427;28;20268;-71
2021/03/17 06:22:57;;;;;;;10.77;7.97;;;;;;;3.94;58.17;93377.06;5011834;28;20534;-71
2021/03/17 06:25:22;;;;;;;8.83;6.70;;;;;;;3.85;56.81;93370.41;5013504;28;20180;-71
2021/03/17 06:27:48;;;;;;;10.27;7.10;;;;;;;3.98;57.46;93377.13;5012272;28;20169;-71
2021/03/17 06:30:14;;;;;;;11.07;7.50;;;;;;;3.87;56.25;93387.44;5013055;28;20675;-72
2021/03/17 06:32:39;;;;;;;11.77;7.67;;;;;;;3.83;57.49;93377.91;5013435;28;20585;-72
2021/03/17 06:35:25;;;;;;;10.80;7.17;;;;;;;3.89;57.22;93377.31;5013178;28;20666;-72
2021/03/17 06:37:51;;;;;;;10.45;7.47;;;;;;;3.86;57.63;93362.13;5013008;28;20193;-72
2021/03/17 06:40:22;;;;;;;10.05;6.75;;;;;;;4.03;56.85;93368.19;5012981;28;20266;-72
2021/03/17 06:42:48;;;;;;;11.77;8.20;;;;;;;4.24;56.70;93392.50;5013152;28;20231;-71
2021/03/17 06:45:14;;;;;;;10.83;7.30;;;;;;;4.28;56.49;93361.66;5013141;28;20200;-71
2021/03/17 06:47:39;;;;;;;10.60;7.43;;;;;;;3.94;56.34;93371.78;5013182;28;20176;-70
2021/03/17 06:50:12;;;;;;;10.63;7.00;;;;;;;4.15;57.06;93376.81;5012839;28;20588;-69
2021/03/17 06:52:41;;;;;;;10.13;7.10;;;;;;;3.98;56.52;93372.63;5012882;28;20229;-70
2021/03/17 06:55:20;;;;;;;10.38;7.43;;;;;;;4.17;57.04;93379.88;5044669;28;20184;-71
2021/03/17 06:57:52;;;;;;;11.40;7.35;;;;;;;4.20;57.91;93381.06;5000915;28;20177;-72
2021/03/17 07:00:30;;;;;;;8.93;5.70;;;;;;;4.11;55.88;93375.19;5012540;28;20181;-73
2021/03/17 07:02:56;;;;;;;9.93;6.78;;;;;;;4.17;56.39;93373.84;5011928;28;20173;-72
2021/03/17 07:05:41;;;;;;;11.68;7.20;;;;;;;4.10;56.78;93371.03;5007344;28;20216;-72
2021/03/17 07:08:08;;;;;;;7.78;6.32;;;;;;;4.25;56.79;93388.75;5012107;28;20173;-72
2021/03/17 07:10:39;;;;;;;15.07;6.70;;;;;;;4.13;56.84;93378.25;5012182;28;20215;-72
2021/03/17 07:13:05;;;;;;;9.30;6.78;;;;;;;4.02;55.93;93374.59;5012158;28;20284;-72
2021/03/17 07:15:32;;;;;;;11.77;6.13;;;;;;;4.07;56.90;93367.19;5012259;28;20177;-72
2021/03/17 07:18:12;;;;;;;11.32;6.82;;;;;;;3.94;55.26;93376.28;5012550;28;20196;-70
2021/03/17 07:20:40;;;;;;;8.63;6.20;;;;;;;4.05;55.91;93379.19;5012229;28;20200;-70
2021/03/17 07:23:29;;;;;;;8.70;6.22;;;;;;;4.34;56.36;93378.78;5011974;28;20181;-71
2021/03/17 07:26:17;;;;;;;10.20;6.22;;;;;;;4.36;55.32;93387.13;5012296;28;20170;-71
2021/03/17 07:28:52;;;;;;;10.18;7.22;;;;;;;4.37;56.23;93380.72;5010707;28;20564;-70
2021/03/17 07:31:19;;;;;;;9.52;6.55;;;;;;;4.51;55.95;93377.66;5010692;28;20234;-74
2021/03/17 07:33:45;;;;;;;9.57;6.93;;;;;;;4.39;55.66;93383.03;5005579;28;20633;-69
2021/03/17 07:36:11;;;;;;;13.13;6.18;;;;;;;4.36;56.99;93389.75;5000337;28;20268;-70
2021/03/17 07:38:37;;;;;;;11.95;6.38;;;;;;;4.25;56.19;93383.44;5011870;28;20209;-71
2021/03/17 07:41:03;;;;;;;11.40;7.27;;;;;;;4.25;56.14;93392.16;5009161;28;20184;-72
2021/03/17 07:43:28;;;;;;;11.90;7.27;;;;;;;4.40;56.38;93384.56;5009518;28;20624;-71
2021/03/17 07:45:54;;;;;;;9.13;5.97;;;;;;;4.31;55.77;93389.25;5010700;28;20204;-70
2021/03/17 07:48:20;;;;;;;9.93;6.17;;;;;;;4.38;56.26;93379.63;5008855;28;20223;-71
2021/03/17 07:50:45;;;;;;;7.75;5.95;;;;;;;4.37;57.97;93387.88;5009550;28;20200;-71
2021/03/17 07:53:25;;;;;;;8.50;6.43;;;;;;;4.31;55.48;93395.31;5010710;28;20271;-72
2021/03/17 07:55:53;;;;;;;10.55;6.25;;;;;;;4.32;57.01;93394.22;4995007;28;20188;-71
2021/03/17 07:58:19;;;;;;;8.02;6.05;;;;;;;4.37;56.45;93398.44;5026647;28;20663;-70
2021/03/17 08:00:44;;;;;;;8.87;6.93;;;;;;;4.27;55.43;93394.47;5007184;28;20173;-76
2021/03/17 08:03:13;;;;;;;9.23;6.47;;;;;;;4.38;56.21;93382.28;5011403;28;20245;-70
2021/03/17 08:05:39;;;;;;;10.18;6.55;;;;;;;4.43;56.45;93399.72;5010994;28;20172;-71
2021/03/17 08:08:06;;;;;;;9.70;6.37;;;;;;;4.48;56.23;93402.88;5010982;28;20181;-70
2021/03/17 08:10:31;;;;;;;7.75;5.93;;;;;;;4.48;57.12;93391.53;5009483;28;20598;-72
2021/03/17 08:12:57;;;;;;;7.57;5.60;;;;;;;4.05;57.11;93387.13;5010537;28;20192;-71
2021/03/17 08:15:22;;;;;;;8.73;5.60;;;;;;;4.21;56.88;93391.31;5011251;28;20185;-72
2021/03/17 08:17:48;;;;;;;8.30;5.50;;;;;;;4.34;58.28;93391.22;5011819;28;20177;-71
2021/03/17 08:20:14;;;;;;;8.53;5.93;;;;;;;4.30;58.25;93388.47;5011432;28;20638;-72
2021/03/17 08:22:41;;;;;;;8.68;5.85;;;;;;;4.32;58.57;93381.00;5013229;28;20676;-68
2021/03/17 08:25:08;;;;;;;8.25;6.22;;;;;;;4.48;58.14;93399.47;5017962;28;20196;-68
2021/03/17 08:27:34;;;;;;;9.40;6.50;;;;;;;4.64;57.68;93402.09;5018283;28;20181;-69
2021/03/17 08:30:12;;;;;;;8.20;5.90;;;;;;;4.71;57.49;93410.19;5017960;28;20230;-69
2021/03/17 08:32:53;;;;;;;8.25;5.80;;;;;;;4.44;56.63;93406.56;5016791;28;20423;-70
2021/03/17 08:35:19;;;;;;;7.97;5.57;;;;;;;4.41;57.42;93401.94;5017852;28;20168;-74
2021/03/17 08:37:49;;;;;;;6.53;5.43;;;;;;;4.48;58.08;93392.31;5016095;28;20203;-73
2021/03/17 08:40:35;;;;;;;8.27;5.47;;;;;;;4.49;58.29;93411.59;5017895;28;20180;-75
2021/03/17 08:43:30;;;;;;;8.02;5.97;;;;;;;4.65;57.35;93409.69;5010720;28;20267;-74
2021/03/17 08:46:15;;;;;;;10.18;6.13;;;;;;;4.77;56.89;93409.59;5018060;28;20177;-73
2021/03/17 08:49:10;;;;;;;7.10;5.35;;;;;;;4.72;57.37;93411.75;5017799;28;20177;-70
2021/03/17 08:51:47;;;;;;;7.80;5.35;;;;;;;4.61;57.39;93408.09;4960793;28;20549;-71
2021/03/17 08:54:39;;;;;;;8.32;5.38;;;;;;;4.43;57.98;93403.16;4976666;28;20736;-70
2021/03/17 08:57:09;;;;;;;6.68;5.05;;;;;;;4.34;58.32;93413.13;4976900;28;20186;-74
2021/03/17 08:59:45;;;;;;;7.45;4.45;;;;;;;4.16;58.29;93399.50;4976619;28;20192;-71
2021/03/17 09:02:33;;;;;;;6.13;4.93;;;;;;;4.32;58.38;93412.72;4976453;28;20190;-69
2021/03/17 09:05:00;;;;;;;7.97;5.45;;;;;;;4.38;59.96;93410.59;4971518;28;20563;-71
2021/03/17 09:07:27;;;;;;;7.80;5.25;;;;;;;4.25;59.52;93409.88;4976230;28;20182;-74
2021/03/17 09:09:53;;;;;;;10.70;5.40;;;;;;;4.29;57.90;93404.69;4960462;28;20210;-68
2021/03/17 09:12:40;;;;;;;7.63;5.20;;;;;;;4.36;58.77;93410.91;4960271;28;20638;-72
2021/03/17 09:15:15;;;;;;;7.45;5.15;;;;;;;4.44;59.32;93414.50;4969762;28;20310;-73
2021/03/17 09:17:47;;;;;;;6.78;5.22;;;;;;;4.23;59.71;93414.75;4973657;28;20252;-73
2021/03/17 09:20:47;;;;;;;8.77;5.43;;;;;;;4.23;60.13;93412.88;4960132;28;20190;-71
2021/03/17 09:23:18;;;;;;;12.43;6.22;;;;;;;4.16;59.38;93419.84;4960458;28;20636;-74
2021/03/17 09:25:54;;;;;;;8.18;6.20;;;;;;;4.18;59.65;93407.06;4976246;28;20320;-71
2021/03/17 09:28:23;;;;;;;8.57;5.53;;;;;;;4.18;58.97;93415.75;5002897;28;20267;-73
2021/03/17 09:31:06;;;;;;;8.43;5.70;;;;;;;4.30;59.07;93404.34;5015934;28;20208;-68
2021/03/17 09:33:39;;;;;;;8.30;5.53;;;;;;;4.39;59.49;93412.09;5016080;28;20184;-70
2021/03/17 09:36:09;;;;;;;10.07;5.65;;;;;;;4.36;59.55;93408.25;5014585;28;20173;-70
2021/03/17 09:38:43;;;;;;;7.30;5.57;;;;;;;4.15;59.80;93405.88;5014449;28;20177;-75
2021/03/17 09:41:14;;;;;;;7.85;5.70;;;;;;;4.25;59.87;93423.09;4997888;28;20814;-79
2021/03/17 09:43:47;;;;;;;8.35;6.13;;;;;;;4.33;60.39;93418.75;5012884;28;20554;-79
2021/03/17 09:46:27;;;;;;;8.30;5.93;;;;;;;4.33;60.68;93424.81;5014412;28;20255;-79
2021/03/17 09:48:54;;;;;;;8.95;6.35;;;;;;;4.30;59.55;93417.56;5013853;28;20203;-78
2021/03/17 09:51:22;;;;;;;8.68;5.97;;;;;;;4.35;59.32;93430.50;5013058;28;20223;-78
2021/03/17 09:53:48;;;;;;;9.27;6.45;;;;;;;4.17;61.08;93424.78;5013801;28;20224;-79
2021/03/17 09:56:13;;;;;;;8.13;5.97;;;;;;;4.35;61.53;93427.09;5012829;28;20177;-78
2021/03/17 09:58:39;;;;;;;8.03;5.80;;;;;;;3.78;61.60;93429.06;5012960;28;20169;-79
2021/03/17 10:01:12;;;;;;;8.77;6.50;;;;;;;3.97;61.86;93423.91;5012541;28;20189;-77
2021/03/17 10:03:42;;;;;;;11.18;7.10;;;;;;;3.90;62.00;93434.28;5014148;28;20579;-78
2021/03/17 10:06:08;;;;;;;11.35;6.85;;;;;;;3.71;62.36;93423.59;5013727;28;20181;-77
2021/03/17 10:08:33;;;;;;;10.07;5.97;;;;;;;3.93;62.85;93428.34;5013970;28;20184;-78
2021/03/17 10:10:59;;;;;;;7.77;6.47;;;;;;;4.05;62.69;93442.59;5013352;28;20201;-78
2021/03/17 10:13:25;;;;;;;10.38;6.45;;;;;;;4.10;63.15;93437.06;5012531;28;20181;-78
2021/03/17 10:15:51;;;;;;;9.27;6.37;;;;;;;4.12;61.56;93432.97;5013582;28;20180;-79
2021/03/17 10:18:17;;;;;;;9.50;6.00;;;;;;;4.18;62.86;93436.88;5013929;28;20177;-77
2021/03/17 10:20:42;;;;;;;10.37;6.70;;;;;;;4.12;63.19;93442.78;5013370;28;20550;-78
2021/03/17 10:23:07;;;;;;;8.43;5.97;;;;;;;4.15;62.43;93450.78;5013614;28;20165;-78
2021/03/17 10:25:33;;;;;;;9.17;6.20;;;;;;;4.16;63.18;93451.56;5012867;28;20220;-77
2021/03/17 10:28:04;;;;;;;8.90;6.20;;;;;;;4.30;63.43;93445.84;5013717;28;20655;-78
2021/03/17 10:30:46;;;;;;;8.02;5.75;;;;;;;4.39;62.67;93434.00;5012180;28;20239;-77
2021/03/17 10:33:13;;;;;;;8.80;6.75;;;;;;;4.27;63.00;93443.91;5013476;28;20542;-77
2021/03/17 10:35:39;;;;;;;7.70;5.72;;;;;;;4.09;63.41;93441.56;5013303;28;20263;-80
2021/03/17 10:38:06;;;;;;;9.00;6.00;;;;;;;4.34;64.17;93442.19;5013277;28;20181;-78
2021/03/17 10:40:32;;;;;;;10.48;6.43;;;;;;;4.46;63.10;93449.28;5012366;28;20181;-78
2021/03/17 10:42:57;;;;;;;10.13;6.47;;;;;;;4.36;63.29;93455.06;5013138;28;20181;-78
2021/03/17 10:45:33;;;;;;;11.57;7.33;;;;;;;3.79;65.21;93451.72;5012329;28;20189;-77
2021/03/17 10:48:08;;;;;;;9.32;6.40;;;;;;;4.18;64.84;93458.03;5012824;28;20304;-77
2021/03/17 10:50:35;;;;;;;7.93;5.65;;;;;;;3.79;64.89;93435.13;5011672;28;20212;-77
2021/03/17 10:53:00;;;;;;;9.98;6.35;;;;;;;3.96;65.13;93451.41;5011093;28;20580;-77
2021/03/17 10:55:30;;;;;;;8.67;6.37;;;;;;;4.32;63.96;93457.63;5012342;28;20272;-77
2021/03/17 10:58:21;;;;;;;7.75;5.63;;;;;;;4.00;63.47;93448.88;5012498;28;20169;-77
2021/03/17 11:00:48;;;;;;;6.88;5.35;;;;;;;3.93;62.78;93441.56;5012102;28;20173;-77
2021/03/17 11:03:24;;;;;;;8.82;6.13;;;;;;;3.88;64.25;93446.31;4994616;28;20192;-77
2021/03/17 11:05:50;;;;;;;9.40;6.10;;;;;;;3.84;63.46;93448.06;5008592;28;20606;-77
2021/03/17 11:08:15;;;;;;;7.17;6.13;;;;;;;3.82;62.63;93432.59;5012198;28;20173;-78
2021/03/17 11:10:46;;;;;;;9.93;6.53;;;;;;;4.17;64.66;93447.81;5012187;28;20189;-78
2021/03/17 11:13:12;;;;;;;12.00;6.88;;;;;;;4.10;62.64;93456.31;5027633;28;20456;-77
2021/03/17 11:15:48;;;;;;;7.73;6.03;;;;;;;3.70;62.74;93441.31;5012561;28;20624;-77
2021/03/17 11:18:29;;;;;;;10.02;6.88;;;;;;;3.64;62.55;93420.75;5010765;28;20339;-76
2021/03/17 11:20:57;;;;;;;9.60;7.03;;;;;;;4.19;63.43;93448.22;5012373;28;20242;-78
2021/03/17 11:23:34;;;;;;;11.80;6.82;;;;;;;4.36;61.79;93455.06;5013032;28;20173;-78
2021/03/17 11:26:00;;;;;;;12.60;7.82;;;;;;;4.48;61.80;93447.81;5012422;28;20172;-79
2021/03/17 11:28:27;;;;;;;10.48;7.45;;;;;;;4.40;62.02;93454.03;5012446;28;20672;-78
2021/03/17 11:30:57;;;;;;;9.10;6.82;;;;;;;4.21;61.05;93452.06;5012187;28;20224;-79
2021/03/17 11:33:23;;;;;;;9.82;7.78;;;;;;;4.04;63.83;93451.59;5012858;28;20267;-78
2021/03/17 11:35:49;;;;;;;10.47;6.77;;;;;;;4.13;63.88;93460.16;5012176;28;20183;-78
2021/03/17 11:38:15;;;;;;;12.15;7.57;;;;;;;4.09;64.70;93461.91;5012221;28;20600;-78
2021/03/17 11:40:41;;;;;;;9.60;6.50;;;;;;;4.17;64.22;93455.72;5012218;28;20177;-78
2021/03/17 11:43:09;;;;;;;9.47;6.87;;;;;;;4.26;63.66;93461.59;5012016;28;20223;-78
2021/03/17 11:45:35;;;;;;;10.95;7.35;;;;;;;4.22;65.13;93458.13;5011533;28;20663;-76